Time;durP1;ratioP1;P1;durP2;ratioP2;P2;SDS_P1;SDS_P2;PMS_P1;PMS_P2;Temp;Humidity;BMP_temperature;BMP_pressure;BME280_temperature;BME280_humidity;BME280_pressure;Samples;Min_cycle;Max_cycle;Signal;HPM_P1;HPM_P2
2023/07/27 00:00:00;;;;;;;5.10;3.57;;;12.40;99.90;;;;;;5063949;28;20202;-32
2023/07/27 00:02:26;;;;;;;5.10;3.93;;;12.30;99.90;;;;;;5049613;28;20652;-30
2023/07/27 00:04:52;;;;;;;6.07;3.60;;;12.30;99.90;;;;;;5050244;28;20648;-31
2023/07/27 00:07:18;;;;;;;4.40;3.40;;;12.30;99.90;;;;;;5049910;28;20180;-32
2023/07/27 00:09:44;;;;;;;6.10;3.30;;;12.30;99.90;;;;;;5050548;28;20205;-31
2023/07/27 00:12:10;;;;;;;3.60;3.30;;;12.20;99.90;;;;;;5033330;28;20192;-32
2023/07/27 00:14:36;;;;;;;4.97;3.53;;;12.20;99.90;;;;;;5049568;28;20280;-31
2023/07/27 00:17:01;;;;;;;5.07;3.47;;;12.20;99.90;;;;;;5033292;28;20189;-31
2023/07/27 00:19:27;;;;;;;7.33;3.40;;;12.20;99.90;;;;;;5032809;28;20233;-32
2023/07/27 00:21:53;;;;;;;5.27;3.40;;;12.20;99.90;;;;;;5049363;28;20264;-32
2023/07/27 00:24:19;;;;;;;4.00;3.30;;;12.20;99.90;;;;;;5049744;28;20185;-32
2023/07/27 00:26:45;;;;;;;5.23;3.30;;;12.20;99.90;;;;;;5051183;28;20177;-32
2023/07/27 00:29:10;;;;;;;4.93;3.47;;;12.20;99.90;;;;;;5049535;28;20240;-32
2023/07/27 00:31:36;;;;;;;6.23;3.47;;;12.20;99.90;;;;;;5032188;28;20276;-32
2023/07/27 00:34:02;;;;;;;4.33;3.10;;;12.20;99.90;;;;;;5049522;28;20238;-32
2023/07/27 00:36:28;;;;;;;5.00;3.50;;;12.20;99.90;;;;;;5032690;28;20181;-31
2023/07/27 00:38:54;;;;;;;5.10;3.70;;;12.10;99.90;;;;;;5033213;28;20208;-32
2023/07/27 00:41:19;;;;;;;5.53;3.80;;;12.10;99.90;;;;;;5033389;28;20184;-31
2023/07/27 00:43:47;;;;;;;4.23;3.23;;;12.10;99.90;;;;;;5033268;28;20187;-31
2023/07/27 00:46:14;;;;;;;5.43;3.50;;;12.10;99.90;;;;;;5049013;28;20230;-31
2023/07/27 00:48:40;;;;;;;5.40;3.80;;;12.10;99.90;;;;;;5049512;28;20197;-32
2023/07/27 00:51:07;;;;;;;4.83;3.20;;;12.00;99.90;;;;;;5032443;28;20533;-32
2023/07/27 00:53:33;;;;;;;3.47;3.10;;;11.90;99.90;;;;;;5049566;28;20189;-32
2023/07/27 00:56:01;;;;;;;5.03;3.30;;;11.80;99.90;;;;;;5032936;28;20199;-32
2023/07/27 00:58:27;;;;;;;4.43;3.67;;;11.80;99.90;;;;;;5032753;28;20215;-31
2023/07/27 01:00:52;;;;;;;4.50;3.37;;;11.70;99.90;;;;;;5048757;28;20215;-31
2023/07/27 01:03:18;;;;;;;4.10;3.50;;;11.60;99.90;;;;;;5048501;28;20188;-31
2023/07/27 01:05:45;;;;;;;4.13;3.73;;;11.60;99.90;;;;;;5046835;28;20180;-30
2023/07/27 01:08:11;;;;;;;6.47;3.80;;;11.60;99.90;;;;;;5045960;28;20215;-32
2023/07/27 01:11:04;;;;;;;5.37;4.00;;;11.60;99.90;;;;;;5032111;28;20218;-32
2023/07/27 01:13:57;;;;;;;4.13;3.60;;;11.60;99.90;;;;;;5032132;28;20184;-32
2023/07/27 01:16:33;;;;;;;3.77;3.40;;;11.70;99.90;;;;;;5034922;28;20206;-32
2023/07/27 01:19:17;;;;;;;7.47;4.03;;;11.60;99.90;;;;;;5049062;28;20293;-32
2023/07/27 01:21:52;;;;;;;6.60;3.80;;;11.70;99.90;;;;;;5065608;28;20208;-31
2023/07/27 01:24:34;;;;;;;5.53;3.70;;;11.70;99.90;;;;;;5048905;28;20182;-31
2023/07/27 01:28:02;;;;;;;4.63;3.43;;;11.60;99.90;;;;;;5047529;28;20189;-31
2023/07/27 01:30:28;;;;;;;5.67;3.87;;;11.70;99.90;;;;;;4956247;28;20259;-32
2023/07/27 01:33:03;;;;;;;4.67;3.90;;;11.70;99.90;;;;;;4955979;28;20183;-32
2023/07/27 01:35:35;;;;;;;5.53;3.67;;;11.80;99.90;;;;;;4985029;28;20195;-32
2023/07/27 01:38:02;;;;;;;5.83;3.80;;;11.80;99.90;;;;;;5048087;28;20237;-32
2023/07/27 01:40:29;;;;;;;4.20;3.80;;;11.80;99.90;;;;;;5049046;28;20213;-32
2023/07/27 01:42:55;;;;;;;5.90;3.70;;;11.80;99.90;;;;;;5033046;28;20209;-31
2023/07/27 01:45:23;;;;;;;4.50;3.67;;;11.80;99.90;;;;;;5036311;28;20208;-32
2023/07/27 01:47:51;;;;;;;4.43;3.87;;;11.80;99.90;;;;;;5035902;28;20177;-32
2023/07/27 01:50:17;;;;;;;7.23;3.90;;;11.80;99.90;;;;;;5036095;28;20557;-31
2023/07/27 01:52:46;;;;;;;5.43;4.03;;;11.70;99.90;;;;;;5035985;28;20184;-32
2023/07/27 01:55:15;;;;;;;4.93;3.77;;;11.70;99.90;;;;;;5036343;28;20227;-31
2023/07/27 01:57:43;;;;;;;4.33;3.50;;;11.60;99.90;;;;;;5035913;28;20188;-30
2023/07/27 02:00:11;;;;;;;5.33;3.90;;;11.60;99.90;;;;;;5036081;28;20253;-31
2023/07/27 02:02:41;;;;;;;4.10;3.70;;;11.60;99.90;;;;;;5052205;28;20190;-30
2023/07/27 02:05:09;;;;;;;7.50;3.63;;;11.60;99.90;;;;;;5036838;28;20175;-30
2023/07/27 02:07:35;;;;;;;4.93;3.80;;;11.60;99.90;;;;;;5035840;28;20180;-30
2023/07/27 02:10:01;;;;;;;4.10;3.70;;;11.60;99.90;;;;;;5052839;28;20551;-30
2023/07/27 02:12:34;;;;;;;6.23;4.17;;;11.60;99.90;;;;;;5034986;28;20185;-31
2023/07/27 02:15:13;;;;;;;4.20;3.80;;;11.60;99.90;;;;;;5052365;28;20186;-29
2023/07/27 02:17:46;;;;;;;5.23;3.20;;;11.60;99.90;;;;;;5035685;28;20180;-30
2023/07/27 02:20:16;;;;;;;4.73;3.80;;;11.70;99.90;;;;;;5035994;28;20231;-30
2023/07/27 02:22:45;;;;;;;7.17;3.90;;;11.60;99.90;;;;;;5052157;28;20189;-30
2023/07/27 02:25:11;;;;;;;6.03;3.97;;;11.60;99.90;;;;;;5052323;28;20181;-30
2023/07/27 02:27:38;;;;;;;5.37;4.03;;;11.60;99.90;;;;;;5051981;28;20212;-30
2023/07/27 02:30:04;;;;;;;5.63;3.70;;;11.70;99.90;;;;;;5035692;28;20196;-30
2023/07/27 02:32:31;;;;;;;6.30;3.77;;;11.70;99.90;;;;;;5052035;28;20191;-30
2023/07/27 02:34:57;;;;;;;6.77;4.30;;;11.70;99.90;;;;;;5052127;28;20188;-30
2023/07/27 02:37:23;;;;;;;4.27;3.87;;;11.80;99.90;;;;;;5035320;28;20185;-30
2023/07/27 02:39:49;;;;;;;5.33;4.10;;;11.80;99.90;;;;;;5035370;28;20217;-31
2023/07/27 02:42:15;;;;;;;4.40;4.00;;;11.80;99.90;;;;;;5052045;28;20186;-30
2023/07/27 02:44:41;;;;;;;5.73;3.80;;;11.80;99.90;;;;;;5035403;28;20195;-30
2023/07/27 02:47:07;;;;;;;5.00;4.43;;;11.80;99.90;;;;;;5051543;28;20231;-30
2023/07/27 02:49:33;;;;;;;6.87;4.40;;;11.90;99.90;;;;;;5051717;28;20202;-30
2023/07/27 02:52:00;;;;;;;4.40;4.00;;;11.90;99.90;;;;;;5051230;28;20180;-30
2023/07/27 02:54:26;;;;;;;5.13;3.33;;;11.90;99.90;;;;;;5050157;28;20188;-30
2023/07/27 02:56:53;;;;;;;4.87;3.60;;;11.90;99.90;;;;;;5050724;28;20187;-30
2023/07/27 02:59:26;;;;;;;5.10;4.10;;;11.90;99.90;;;;;;5048677;28;20208;-30
2023/07/27 03:01:52;;;;;;;5.87;4.00;;;12.00;99.90;;;;;;5038768;28;20183;-30
2023/07/27 03:04:23;;;;;;;5.40;3.47;;;12.00;99.90;;;;;;5050609;28;20184;-30
2023/07/27 03:06:49;;;;;;;5.10;3.47;;;12.00;99.90;;;;;;5051021;28;20172;-30
2023/07/27 03:09:17;;;;;;;3.70;3.40;;;12.00;99.90;;;;;;5035463;28;20201;-30
2023/07/27 03:11:43;;;;;;;5.80;4.43;;;12.00;99.90;;;;;;5034274;28;20186;-30
2023/07/27 03:14:09;;;;;;;5.83;3.83;;;12.00;99.90;;;;;;5034741;28;20173;-30
2023/07/27 03:16:35;;;;;;;4.80;4.00;;;12.00;99.90;;;;;;5034254;28;20197;-30
2023/07/27 03:19:01;;;;;;;5.27;3.90;;;12.10;99.90;;;;;;5051634;28;20194;-30
2023/07/27 03:21:27;;;;;;;5.37;3.63;;;12.10;99.90;;;;;;5034848;28;20239;-31
2023/07/27 03:23:52;;;;;;;5.30;4.13;;;12.10;99.90;;;;;;5051194;28;20214;-30
2023/07/27 03:26:19;;;;;;;5.97;4.07;;;12.10;99.90;;;;;;5050267;28;20289;-30
2023/07/27 03:28:45;;;;;;;5.17;4.20;;;12.10;99.90;;;;;;5034968;28;20272;-30
2023/07/27 03:31:30;;;;;;;4.03;3.63;;;12.10;99.90;;;;;;5051299;28;20177;-30
2023/07/27 03:33:56;;;;;;;6.00;3.90;;;12.10;99.90;;;;;;5050715;28;20174;-30
2023/07/27 03:36:22;;;;;;;6.30;4.07;;;12.10;99.90;;;;;;5033910;28;20192;-31
2023/07/27 03:38:48;;;;;;;7.23;4.17;;;12.00;99.90;;;;;;5034565;28;20292;-30
2023/07/27 03:41:15;;;;;;;5.77;3.73;;;12.00;99.90;;;;;;5051102;28;20359;-30
2023/07/27 03:43:41;;;;;;;8.50;3.90;;;12.10;99.90;;;;;;5050400;28;20171;-31
2023/07/27 03:46:06;;;;;;;4.87;3.90;;;12.10;99.90;;;;;;5050466;28;20180;-31
2023/07/27 03:48:32;;;;;;;6.70;4.30;;;12.10;99.90;;;;;;5050195;28;20240;-31
2023/07/27 03:51:02;;;;;;;6.20;4.53;;;12.10;99.90;;;;;;5050645;28;20227;-31
2023/07/27 03:53:28;;;;;;;3.90;3.50;;;12.10;99.90;;;;;;5050165;28;20195;-30
2023/07/27 03:55:54;;;;;;;7.00;4.30;;;12.20;99.90;;;;;;5050454;28;20184;-30
2023/07/27 03:58:21;;;;;;;5.40;4.17;;;12.20;99.90;;;;;;5034133;28;20207;-30
2023/07/27 04:00:47;;;;;;;4.80;3.80;;;12.10;99.90;;;;;;5050375;28;20244;-30
2023/07/27 04:03:13;;;;;;;5.10;4.07;;;12.10;99.90;;;;;;5050308;28;20236;-30
2023/07/27 04:05:39;;;;;;;7.10;4.37;;;12.10;99.90;;;;;;5050054;28;20178;-31
2023/07/27 04:08:05;;;;;;;4.67;3.87;;;12.20;99.90;;;;;;5033923;28;20175;-30
2023/07/27 04:10:31;;;;;;;6.13;4.07;;;12.20;99.90;;;;;;5030067;28;20201;-30
2023/07/27 04:12:58;;;;;;;5.60;4.13;;;12.10;99.90;;;;;;5050017;28;20203;-31
2023/07/27 04:15:24;;;;;;;5.33;3.70;;;12.10;99.90;;;;;;5036549;28;20258;-30
2023/07/27 04:17:50;;;;;;;5.20;3.90;;;12.10;99.90;;;;;;5049295;28;20189;-31
2023/07/27 04:20:16;;;;;;;4.63;4.17;;;12.10;99.90;;;;;;5047573;28;20232;-30
2023/07/27 04:22:42;;;;;;;4.90;4.03;;;12.10;99.90;;;;;;5032368;28;20223;-31
2023/07/27 04:25:08;;;;;;;4.43;4.00;;;12.10;99.90;;;;;;5034606;28;20175;-31
2023/07/27 04:27:34;;;;;;;5.53;4.20;;;12.20;99.90;;;;;;5029470;28;20180;-30
2023/07/27 04:30:00;;;;;;;5.27;4.07;;;12.20;99.90;;;;;;5045852;28;20255;-31
2023/07/27 04:32:26;;;;;;;6.23;4.00;;;12.20;99.90;;;;;;5049758;28;20211;-30
2023/07/27 04:34:52;;;;;;;4.50;3.60;;;12.20;99.90;;;;;;5043944;28;20187;-32
2023/07/27 04:37:20;;;;;;;5.17;3.70;;;12.20;99.90;;;;;;5043848;28;20220;-30
2023/07/27 04:39:53;;;;;;;5.53;4.20;;;12.20;99.90;;;;;;5039801;28;20220;-30
2023/07/27 04:42:21;;;;;;;5.83;4.50;;;12.20;99.90;;;;;;5031775;28;20187;-30
2023/07/27 04:44:47;;;;;;;8.10;4.07;;;12.30;99.90;;;;;;5048271;28;20260;-29
2023/07/27 04:47:13;;;;;;;4.77;3.73;;;12.20;99.90;;;;;;5030941;28;20259;-30
2023/07/27 04:49:39;;;;;;;4.33;3.93;;;12.30;99.90;;;;;;5031784;28;20216;-30
2023/07/27 04:52:05;;;;;;;6.47;4.20;;;12.30;99.90;;;;;;5047894;28;20184;-31
2023/07/27 04:54:31;;;;;;;6.27;3.57;;;12.30;99.90;;;;;;5048193;28;20189;-31
2023/07/27 04:56:57;;;;;;;4.73;3.93;;;12.30;99.90;;;;;;5049138;28;20189;-30
2023/07/27 04:59:23;;;;;;;7.47;3.90;;;12.40;99.90;;;;;;5032627;28;20208;-30
2023/07/27 05:01:48;;;;;;;4.17;3.77;;;12.50;99.90;;;;;;5049349;28;20181;-30
2023/07/27 05:04:14;;;;;;;5.20;3.90;;;12.50;99.90;;;;;;5030423;28;20238;-31
2023/07/27 05:06:40;;;;;;;4.90;4.20;;;12.50;99.90;;;;;;5032105;28;20174;-31
2023/07/27 05:09:07;;;;;;;5.33;4.20;;;12.60;99.90;;;;;;5031544;28;20235;-31
2023/07/27 05:11:33;;;;;;;4.97;4.47;;;12.60;99.90;;;;;;5049186;28;20180;-32
2023/07/27 05:13:59;;;;;;;5.37;3.40;;;12.60;99.90;;;;;;5032410;28;20184;-30
2023/07/27 05:16:25;;;;;;;5.90;3.73;;;12.70;99.90;;;;;;5048795;28;20190;-30
2023/07/27 05:18:52;;;;;;;4.53;4.10;;;12.70;99.90;;;;;;5052402;28;20370;-30
2023/07/27 05:21:18;;;;;;;7.40;4.27;;;12.70;99.90;;;;;;5036636;28;20273;-30
2023/07/27 05:23:44;;;;;;;5.70;4.07;;;12.80;99.90;;;;;;5036251;28;20177;-31
2023/07/27 05:26:10;;;;;;;5.80;4.03;;;12.80;99.90;;;;;;5054423;28;20196;-30
2023/07/27 05:28:36;;;;;;;4.40;4.00;;;12.90;99.90;;;;;;5035610;28;20233;-30
2023/07/27 05:31:02;;;;;;;6.57;4.07;;;12.90;99.90;;;;;;5053531;28;20285;-30
2023/07/27 05:33:28;;;;;;;5.37;4.10;;;13.00;99.90;;;;;;5053520;28;20245;-30
2023/07/27 05:35:54;;;;;;;4.50;3.93;;;12.90;99.90;;;;;;5053261;28;20201;-30
2023/07/27 05:38:21;;;;;;;5.50;3.70;;;13.00;99.90;;;;;;5054230;28;20178;-30
2023/07/27 05:40:46;;;;;;;4.57;3.93;;;13.00;99.90;;;;;;5037842;28;20202;-30
2023/07/27 05:43:12;;;;;;;7.63;4.40;;;13.10;99.90;;;;;;5038768;28;20216;-30
2023/07/27 05:45:39;;;;;;;6.80;4.13;;;13.10;99.90;;;;;;5055629;28;20158;-31
2023/07/27 05:48:05;;;;;;;4.90;4.37;;;13.10;99.90;;;;;;5055560;28;20185;-30
2023/07/27 05:50:32;;;;;;;6.20;4.03;;;13.10;99.90;;;;;;5053313;28;20213;-30
2023/07/27 05:52:58;;;;;;;7.07;4.20;;;13.20;99.90;;;;;;5036676;28;20273;-30
2023/07/27 05:55:24;;;;;;;6.67;4.10;;;13.20;99.90;;;;;;5053285;28;20265;-30
2023/07/27 05:57:50;;;;;;;4.20;3.80;;;13.30;99.90;;;;;;5036136;28;20192;-31
2023/07/27 06:00:16;;;;;;;7.40;4.03;;;13.30;99.90;;;;;;5036403;28;20300;-30
2023/07/27 06:02:42;;;;;;;6.47;3.73;;;13.40;99.90;;;;;;5036478;28;20269;-30
2023/07/27 06:05:08;;;;;;;6.20;3.83;;;13.40;99.90;;;;;;5036483;28;20245;-31
2023/07/27 06:07:34;;;;;;;4.50;3.60;;;13.50;99.90;;;;;;5035931;28;20178;-30
2023/07/27 06:10:00;;;;;;;5.30;4.13;;;13.50;99.90;;;;;;5036443;28;20240;-30
2023/07/27 06:12:26;;;;;;;5.40;4.13;;;13.50;99.90;;;;;;5035902;28;20185;-30
2023/07/27 06:14:52;;;;;;;4.40;3.80;;;13.60;99.90;;;;;;5036003;28;20186;-31
2023/07/27 06:17:17;;;;;;;4.87;3.83;;;13.60;99.90;;;;;;5052712;28;20221;-31
2023/07/27 06:19:43;;;;;;;5.37;4.03;;;13.70;99.90;;;;;;5052448;28;20302;-31
2023/07/27 06:22:09;;;;;;;3.77;3.37;;;13.80;99.90;;;;;;5036274;28;20178;-30
2023/07/27 06:24:35;;;;;;;3.40;3.10;;;13.80;99.90;;;;;;5036286;28;20220;-31
2023/07/27 06:27:01;;;;;;;4.17;3.57;;;13.90;99.90;;;;;;5035522;28;20182;-31
2023/07/27 06:29:26;;;;;;;4.23;3.23;;;14.00;99.90;;;;;;5051830;28;20248;-31
2023/07/27 06:31:52;;;;;;;4.60;3.37;;;14.00;99.90;;;;;;5036085;28;20185;-31
2023/07/27 06:34:18;;;;;;;3.63;3.33;;;14.10;99.90;;;;;;5052579;28;20190;-30
2023/07/27 06:36:44;;;;;;;5.03;3.50;;;14.20;99.90;;;;;;5052353;28;20174;-31
2023/07/27 06:39:10;;;;;;;6.17;3.60;;;14.30;99.90;;;;;;5052983;28;20334;-30
2023/07/27 06:41:35;;;;;;;4.43;3.30;;;14.30;99.90;;;;;;5052377;28;20189;-31
2023/07/27 06:44:01;;;;;;;4.63;3.87;;;14.30;99.90;;;;;;5035915;28;20535;-31
2023/07/27 06:46:27;;;;;;;4.30;3.37;;;14.50;99.90;;;;;;5036115;28;20182;-31
2023/07/27 06:48:53;;;;;;;6.07;3.10;;;14.50;99.90;;;;;;5052502;28;20197;-30
2023/07/27 06:51:19;;;;;;;3.83;3.43;;;14.50;99.90;;;;;;5052750;28;20285;-30
2023/07/27 06:53:45;;;;;;;3.70;3.40;;;14.70;99.90;;;;;;5036140;28;20189;-31
2023/07/27 06:56:11;;;;;;;3.53;3.10;;;14.70;99.90;;;;;;5035706;28;20182;-31
2023/07/27 06:58:39;;;;;;;5.43;3.60;;;14.80;99.90;;;;;;5035854;28;20205;-31
2023/07/27 07:01:05;;;;;;;3.37;2.97;;;14.90;99.90;;;;;;5033993;28;20209;-31
2023/07/27 07:03:30;;;;;;;4.93;3.40;;;15.00;99.90;;;;;;5053272;28;20209;-31
2023/07/27 07:05:56;;;;;;;3.23;2.93;;;15.00;99.90;;;;;;5047627;28;20217;-31
2023/07/27 07:08:23;;;;;;;4.00;3.03;;;15.10;99.90;;;;;;5034235;28;20201;-31
2023/07/27 07:10:48;;;;;;;4.63;3.23;;;15.10;99.90;;;;;;5061256;28;20250;-30
2023/07/27 07:13:14;;;;;;;4.13;3.17;;;15.20;99.90;;;;;;5055386;28;20173;-31
2023/07/27 07:15:40;;;;;;;3.50;3.07;;;15.20;99.90;;;;;;5049761;28;20205;-31
2023/07/27 07:18:06;;;;;;;4.03;3.63;;;15.30;99.90;;;;;;5049786;28;20194;-31
2023/07/27 07:20:32;;;;;;;6.57;4.10;;;15.30;99.90;;;;;;5049084;28;20236;-31
2023/07/27 07:22:58;;;;;;;4.27;3.37;;;15.40;99.90;;;;;;5047974;28;20174;-32
2023/07/27 07:25:23;;;;;;;6.37;4.20;;;15.40;99.90;;;;;;5050293;28;20224;-33
2023/07/27 07:27:49;;;;;;;4.20;3.80;;;15.50;99.90;;;;;;5067771;28;20182;-32
2023/07/27 07:30:16;;;;;;;4.43;3.77;;;15.50;99.90;;;;;;5068062;28;20225;-32
2023/07/27 07:32:41;;;;;;;4.13;3.73;;;15.50;99.90;;;;;;5066618;28;20182;-31
2023/07/27 07:35:07;;;;;;;5.83;4.27;;;15.60;99.90;;;;;;5067824;28;20193;-32
2023/07/27 07:37:33;;;;;;;6.20;4.00;;;15.60;99.90;;;;;;5067492;28;20231;-33
2023/07/27 07:39:59;;;;;;;4.27;3.57;;;15.60;99.90;;;;;;5050285;28;20214;-32
2023/07/27 07:42:25;;;;;;;4.57;3.30;;;15.70;99.90;;;;;;5067299;28;20671;-32
2023/07/27 07:44:51;;;;;;;5.30;3.53;;;15.70;99.90;;;;;;5067599;28;20310;-33
2023/07/27 07:47:16;;;;;;;5.43;3.83;;;15.70;99.90;;;;;;5051756;28;20181;-33
2023/07/27 07:49:43;;;;;;;4.43;3.60;;;15.80;99.90;;;;;;5067153;28;20202;-32
2023/07/27 07:52:09;;;;;;;4.03;3.40;;;15.90;99.90;;;;;;5052008;28;20243;-33
2023/07/27 07:54:34;;;;;;;4.93;3.63;;;15.90;99.90;;;;;;5067086;28;20186;-32
2023/07/27 07:57:00;;;;;;;6.20;3.97;;;16.00;99.90;;;;;;5050503;28;20178;-33
2023/07/27 07:59:26;;;;;;;11.57;3.77;;;16.10;99.90;;;;;;5050775;28;20390;-33
2023/07/27 08:01:52;;;;;;;7.60;3.70;;;16.20;99.90;;;;;;5033609;28;20249;-33
2023/07/27 08:04:18;;;;;;;9.83;3.83;;;16.30;99.90;;;;;;5033933;28;20268;-32
2023/07/27 08:06:45;;;;;;;7.90;3.47;;;16.40;99.90;;;;;;5033813;28;20178;-33
2023/07/27 08:09:11;;;;;;;4.17;3.07;;;16.50;99.90;;;;;;5050639;28;20197;-33
2023/07/27 08:11:41;;;;;;;3.40;2.90;;;16.60;99.90;;;;;;5050507;28;20181;-32
2023/07/27 08:14:08;;;;;;;4.97;3.10;;;16.70;99.90;;;;;;5050097;28;20179;-33
2023/07/27 08:16:34;;;;;;;6.47;3.10;;;16.80;99.90;;;;;;5033358;28;20194;-32
2023/07/27 08:19:00;;;;;;;3.72;2.65;;;16.80;99.90;;;;;;5033451;28;20202;-32
2023/07/27 08:21:28;;;;;;;4.00;2.80;;;16.90;99.90;;;;;;5049876;28;20308;-32
2023/07/27 08:23:54;;;;;;;5.05;2.45;;;17.00;99.90;;;;;;5033454;28;20178;-33
2023/07/27 08:26:20;;;;;;;6.35;2.58;;;17.00;99.90;;;;;;5033318;28;20182;-33
2023/07/27 08:28:46;;;;;;;3.03;2.42;;;17.00;99.90;;;;;;5033114;28;20240;-32
2023/07/27 08:31:12;;;;;;;3.83;2.45;;;17.10;99.90;;;;;;5033270;28;20192;-33
2023/07/27 08:33:38;;;;;;;3.78;2.95;;;17.10;99.90;;;;;;5033031;28;20178;-33
2023/07/27 08:36:04;;;;;;;5.35;2.65;;;17.20;99.90;;;;;;5032953;28;20249;-32
2023/07/27 08:38:31;;;;;;;3.83;2.90;;;17.20;99.90;;;;;;5049837;28;20237;-32
2023/07/27 08:41:01;;;;;;;4.18;2.83;;;17.30;99.90;;;;;;5033226;28;20248;-33
2023/07/27 08:43:27;;;;;;;5.30;2.83;;;17.30;99.90;;;;;;5032990;28;20174;-32
2023/07/27 08:45:54;;;;;;;3.10;2.80;;;17.30;99.90;;;;;;5033386;28;20196;-33
2023/07/27 08:48:22;;;;;;;2.97;2.55;;;17.40;99.90;;;;;;5049260;28;20197;-32
2023/07/27 08:50:48;;;;;;;4.03;2.70;;;17.40;99.90;;;;;;5049990;28;20186;-33
2023/07/27 08:53:18;;;;;;;3.85;2.50;;;17.40;99.90;;;;;;5032547;28;20190;-32
2023/07/27 08:55:44;;;;;;;3.30;2.50;;;17.50;99.90;;;;;;5031317;28;20213;-33
2023/07/27 08:58:11;;;;;;;4.57;2.90;;;17.50;99.90;;;;;;5032627;28;20190;-32
2023/07/27 09:00:40;;;;;;;3.95;3.20;;;17.50;99.90;;;;;;5050116;28;20205;-33
2023/07/27 09:03:09;;;;;;;4.57;2.88;;;17.50;99.90;;;;;;5033137;28;20178;-33
2023/07/27 09:05:39;;;;;;;3.90;2.72;;;17.60;99.90;;;;;;5032981;28;20241;-33
2023/07/27 09:08:09;;;;;;;5.03;2.53;;;17.60;99.90;;;;;;5033072;28;20245;-32
2023/07/27 09:10:39;;;;;;;5.05;3.03;;;17.70;99.90;;;;;;5049582;28;20190;-32
2023/07/27 09:13:06;;;;;;;4.13;2.33;;;17.80;99.90;;;;;;5032685;28;20228;-33
2023/07/27 09:15:40;;;;;;;2.97;2.30;;;17.90;99.90;;;;;;5032471;28;20205;-32
2023/07/27 09:18:14;;;;;;;4.20;2.22;;;18.00;99.90;;;;;;5032858;28;20182;-32
2023/07/27 09:20:40;;;;;;;3.60;2.20;;;18.10;99.90;;;;;;5032619;28;20205;-33
2023/07/27 09:23:07;;;;;;;2.75;2.47;;;18.20;99.90;;;;;;5049480;28;20319;-33
2023/07/27 09:25:33;;;;;;;2.97;2.08;;;18.20;99.90;;;;;;5032951;28;20239;-32
2023/07/27 09:27:59;;;;;;;2.80;2.20;;;18.30;99.90;;;;;;5036129;28;20187;-33
2023/07/27 09:30:25;;;;;;;2.92;1.83;;;18.30;99.90;;;;;;5046001;28;20238;-32
2023/07/27 09:32:52;;;;;;;3.85;1.70;;;18.30;99.90;;;;;;5045707;28;20186;-32
2023/07/27 09:35:19;;;;;;;2.67;1.90;;;18.30;99.90;;;;;;5045878;28;20197;-31
2023/07/27 09:37:47;;;;;;;3.08;1.83;;;18.40;99.90;;;;;;5046657;28;20205;-33
2023/07/27 09:40:16;;;;;;;2.05;1.70;;;18.40;99.90;;;;;;5049187;28;20198;-33
2023/07/27 09:42:44;;;;;;;3.78;1.85;;;18.40;99.90;;;;;;5032157;28;20178;-33
2023/07/27 09:45:13;;;;;;;2.63;1.90;;;18.40;99.90;;;;;;5048883;28;20178;-33
2023/07/27 09:47:39;;;;;;;3.17;1.80;;;18.40;99.90;;;;;;5048493;28;20205;-33
2023/07/27 09:50:07;;;;;;;4.82;1.92;;;18.50;99.90;;;;;;5029256;28;20196;-33
2023/07/27 09:52:36;;;;;;;2.47;1.90;;;18.50;99.90;;;;;;5031802;28;20182;-32
2023/07/27 09:55:03;;;;;;;1.85;1.75;;;18.60;99.90;;;;;;5049916;28;20178;-32
2023/07/27 09:57:29;;;;;;;2.10;1.80;;;18.70;99.90;;;;;;5048439;28;20193;-33
2023/07/27 09:59:55;;;;;;;2.80;2.05;;;18.70;99.90;;;;;;5048649;28;20202;-33
2023/07/27 10:02:22;;;;;;;2.00;1.80;;;18.70;99.90;;;;;;5048320;28;20174;-32
2023/07/27 10:04:51;;;;;;;3.67;2.03;;;18.70;99.90;;;;;;5051449;28;20181;-31
2023/07/27 10:07:19;;;;;;;3.08;1.80;;;18.80;99.90;;;;;;5035406;28;20174;-32
2023/07/27 10:09:46;;;;;;;2.85;1.85;;;18.80;99.90;;;;;;5049466;28;20247;-32
2023/07/27 10:12:29;;;;;;;2.78;2.10;;;18.90;99.90;;;;;;5052378;28;20269;-32
2023/07/27 10:15:20;;;;;;;2.20;1.83;;;19.00;99.90;;;;;;5034044;28;20190;-33
2023/07/27 10:17:54;;;;;;;3.05;1.90;;;19.00;99.90;;;;;;5049255;28;20178;-32
2023/07/27 10:20:33;;;;;;;1.88;1.70;;;19.00;99.90;;;;;;5035346;28;20206;-33
2023/07/27 10:23:20;;;;;;;3.25;1.95;;;19.00;99.90;;;;;;5050896;28;20178;-33
2023/07/27 10:25:56;;;;;;;2.45;1.90;;;19.00;99.90;;;;;;5051634;28;20177;-33
2023/07/27 10:28:41;;;;;;;2.80;1.88;;;19.10;99.90;;;;;;5051825;28;20203;-32
2023/07/27 10:31:19;;;;;;;3.10;2.03;;;19.10;99.90;;;;;;5027245;28;20174;-33
2023/07/27 10:34:08;;;;;;;3.45;2.13;;;19.10;99.90;;;;;;5051208;28;20180;-33
2023/07/27 10:36:57;;;;;;;2.78;1.85;;;19.20;99.90;;;;;;5049433;28;20189;-32
2023/07/27 10:39:26;;;;;;;3.05;1.80;;;19.20;99.90;;;;;;5051383;28;20248;-32
2023/07/27 10:42:07;;;;;;;3.53;1.70;;;19.30;99.90;;;;;;5051632;28;20170;-32
2023/07/27 10:44:45;;;;;;;2.53;1.75;;;19.30;99.90;;;;;;5049729;28;20177;-33
2023/07/27 10:47:25;;;;;;;2.97;1.83;;;19.30;99.90;;;;;;5032830;28;20178;-33
2023/07/27 10:49:55;;;;;;;2.63;2.08;;;19.40;99.90;;;;;;5032572;28;20197;-33
2023/07/27 10:52:26;;;;;;;2.72;1.55;;;19.40;99.90;;;;;;5051137;28;20182;-32
2023/07/27 10:54:53;;;;;;;2.35;1.63;;;19.50;99.90;;;;;;5035003;28;20186;-32
2023/07/27 10:57:20;;;;;;;2.75;2.00;;;19.50;99.90;;;;;;5034751;28;20265;-32
2023/07/27 10:59:49;;;;;;;2.17;1.80;;;19.60;99.90;;;;;;5050489;28;20213;-33
2023/07/27 11:02:26;;;;;;;2.80;1.98;;;19.70;99.90;;;;;;5032818;28;20186;-35
2023/07/27 11:04:57;;;;;;;4.18;2.08;;;19.80;99.90;;;;;;5034394;28;20189;-32
2023/07/27 11:07:30;;;;;;;3.42;2.15;;;19.90;99.90;;;;;;5046796;28;20265;-33
2023/07/27 11:09:58;;;;;;;2.20;1.80;;;20.10;99.90;;;;;;5047987;28;20206;-33
2023/07/27 11:12:24;;;;;;;2.38;1.80;;;20.10;99.90;;;;;;5034729;28;20181;-33
2023/07/27 11:14:51;;;;;;;2.17;1.98;;;20.30;99.90;;;;;;5049170;28;20216;-33
2023/07/27 11:17:19;;;;;;;3.03;1.90;;;20.40;99.90;;;;;;5031410;28;20182;-32
2023/07/27 11:19:47;;;;;;;2.40;1.98;;;20.40;99.90;;;;;;5031159;28;20217;-32
2023/07/27 11:22:13;;;;;;;2.03;1.83;;;20.50;99.90;;;;;;5047970;28;20182;-33
2023/07/27 11:24:39;;;;;;;1.88;1.77;;;20.60;99.90;;;;;;5044219;28;20182;-33
2023/07/27 11:27:07;;;;;;;2.88;2.22;;;20.60;99.90;;;;;;5053268;28;20228;-32
2023/07/27 11:29:33;;;;;;;3.30;1.80;;;20.70;99.90;;;;;;5050007;28;20202;-33
2023/07/27 11:32:00;;;;;;;4.32;1.77;;;20.80;99.90;;;;;;5051506;28;20213;-33
2023/07/27 11:34:28;;;;;;;2.60;1.77;;;20.80;99.90;;;;;;5051145;28;20178;-32
2023/07/27 11:37:03;;;;;;;1.70;1.60;;;20.90;99.90;;;;;;5036905;28;20179;-32
2023/07/27 11:39:52;;;;;;;1.58;1.48;;;20.90;99.90;;;;;;5050425;28;20213;-33
2023/07/27 11:42:50;;;;;;;2.85;1.90;;;20.90;99.90;;;;;;5026150;28;20213;-33
2023/07/27 11:45:21;;;;;;;3.65;1.83;;;20.90;99.90;;;;;;5052061;28;20243;-32
2023/07/27 11:48:17;;;;;;;1.65;1.50;;;20.80;99.90;;;;;;5050000;28;20178;-32
2023/07/27 11:51:13;;;;;;;3.50;1.85;;;20.80;99.90;;;;;;5052275;28;20193;-33
2023/07/27 11:54:00;;;;;;;2.78;1.50;;;20.70;99.90;;;;;;5033214;28;20272;-32
2023/07/27 11:56:48;;;;;;;1.70;1.60;;;20.70;99.90;;;;;;5030938;28;20198;-33
2023/07/27 11:59:35;;;;;;;2.67;1.65;;;20.70;99.90;;;;;;5046829;28;20205;-32
2023/07/27 12:02:18;;;;;;;3.22;1.50;;;20.70;99.90;;;;;;5055153;28;20178;-32
2023/07/27 12:04:58;;;;;;;3.67;1.35;;;20.70;99.90;;;;;;5037899;28;20177;-32
2023/07/27 12:07:46;;;;;;;3.22;1.65;;;20.70;99.90;;;;;;5050760;28;20178;-33
2023/07/27 12:10:24;;;;;;;4.28;1.55;;;20.60;99.90;;;;;;5022509;28;20201;-33
2023/07/27 12:13:13;;;;;;;6.10;1.63;;;20.30;99.90;;;;;;5049698;28;20174;-35
2023/07/27 12:15:59;;;;;;;3.70;1.63;;;20.20;99.90;;;;;;5066126;28;20242;-33
2023/07/27 12:18:45;;;;;;;5.80;1.90;;;20.00;99.90;;;;;;5048510;28;20193;-33
2023/07/27 12:21:29;;;;;;;5.18;2.10;;;19.90;99.90;;;;;;5048262;28;20206;-36
2023/07/27 12:24:11;;;;;;;2.63;1.60;;;19.80;99.90;;;;;;5057998;28;20176;-33
2023/07/27 12:26:47;;;;;;;2.45;1.63;;;19.70;99.90;;;;;;5062602;28;20208;-33
2023/07/27 12:29:19;;;;;;;2.13;1.90;;;19.60;99.90;;;;;;5066568;28;20248;-34
2023/07/27 12:31:51;;;;;;;3.75;2.00;;;19.50;99.90;;;;;;5067230;28;20193;-33
2023/07/27 12:34:17;;;;;;;2.60;1.65;;;19.50;99.90;;;;;;5066369;28;20301;-33
2023/07/27 12:36:49;;;;;;;2.03;1.75;;;19.50;99.90;;;;;;5066514;28;20269;-33
2023/07/27 12:39:21;;;;;;;3.55;1.80;;;19.40;99.90;;;;;;5066056;28;20202;-33
2023/07/27 12:41:48;;;;;;;3.20;1.92;;;19.40;99.90;;;;;;5066597;28;20238;-34
2023/07/27 12:44:27;;;;;;;1.65;1.55;;;19.50;99.90;;;;;;5053544;28;20178;-33
2023/07/27 12:47:01;;;;;;;2.08;1.73;;;19.50;99.90;;;;;;5046365;28;20260;-32
2023/07/27 12:49:31;;;;;;;3.92;1.77;;;19.60;99.90;;;;;;5053508;28;20209;-33
2023/07/27 12:52:01;;;;;;;2.30;1.70;;;19.60;99.90;;;;;;5031569;28;20205;-29
2023/07/27 12:54:28;;;;;;;1.75;1.50;;;19.60;99.90;;;;;;5048417;28;20197;-34
2023/07/27 12:56:56;;;;;;;2.55;1.70;;;19.70;99.90;;;;;;5047675;28;20174;-31